createdAt,value
2018-10-17T00:04:54.916Z,18.50
2018-10-17T00:07:28.169Z,18.50
2018-10-17T00:10:02.501Z,18.50
2018-10-17T00:12:35.316Z,18.50
2018-10-17T00:15:09.799Z,18.40
2018-10-17T00:17:44.026Z,18.30
2018-10-17T00:20:19.933Z,18.30
2018-10-17T00:22:53.331Z,18.20
2018-10-17T00:25:28.038Z,18.20
2018-10-17T00:28:01.693Z,18.10
2018-10-17T00:30:39.561Z,18.00
2018-10-17T00:33:15.052Z,18.00
2018-10-17T00:35:48.446Z,18.00
2018-10-17T00:38:21.771Z,18.00
2018-10-17T00:40:55.370Z,17.90
2018-10-17T00:43:28.816Z,17.90
2018-10-17T00:46:02.022Z,17.90
2018-10-17T00:48:35.012Z,17.80
2018-10-17T00:51:08.895Z,17.80
2018-10-17T00:53:42.153Z,17.70
2018-10-17T00:56:18.956Z,17.70
2018-10-17T00:59:05.210Z,17.70
2018-10-17T01:01:41.662Z,17.70
2018-10-17T01:04:16.245Z,17.70
2018-10-17T01:06:51.549Z,17.60
2018-10-17T01:09:26.394Z,17.60
2018-10-17T01:12:08.786Z,17.60
2018-10-17T01:14:44.684Z,17.60
2018-10-17T01:17:18.597Z,17.60
2018-10-17T01:20:06.559Z,17.60
2018-10-17T01:22:47.810Z,17.60
2018-10-17T01:25:37.068Z,17.50
2018-10-17T01:28:16.301Z,17.50
2018-10-17T01:30:55.897Z,17.50
2018-10-17T01:33:32.586Z,17.40
2018-10-17T01:36:10.163Z,17.50
2018-10-17T01:38:54.557Z,17.50
2018-10-17T01:41:28.665Z,17.40
2018-10-17T01:44:03.759Z,17.60
2018-10-17T01:46:44.496Z,17.70
2018-10-17T01:49:19.991Z,17.70
2018-10-17T01:51:58.280Z,17.80
2018-10-17T01:54:34.123Z,17.70
2018-10-17T01:59:49.069Z,17.50
2018-10-17T02:02:25.977Z,17.50
2018-10-17T02:05:00.988Z,17.60
2018-10-17T02:07:37.705Z,17.50
2018-10-17T02:10:14.718Z,17.50
2018-10-17T02:12:51.161Z,17.60
2018-10-17T02:15:24.740Z,17.60
2018-10-17T02:18:06.317Z,17.60
2018-10-17T02:20:46.246Z,17.60
2018-10-17T02:23:22.026Z,17.60
2018-10-17T02:26:09.967Z,17.50
2018-10-17T02:28:56.021Z,17.60
2018-10-17T02:31:30.998Z,17.60
2018-10-17T02:34:12.681Z,17.60
2018-10-17T02:36:48.716Z,17.40
2018-10-17T02:39:26.896Z,17.50
2018-10-17T02:42:01.652Z,17.50
2018-10-17T02:44:36.101Z,17.50
2018-10-17T02:47:11.278Z,17.50
2018-10-17T02:53:09.562Z,17.50
2018-10-17T02:55:47.033Z,17.50
2018-10-17T03:01:41.507Z,17.50
2018-10-17T03:04:14.988Z,17.40
2018-10-17T03:06:49.003Z,17.40
2018-10-17T03:09:25.508Z,17.40
2018-10-17T03:12:11.123Z,17.40
2018-10-17T03:14:46.005Z,17.40
2018-10-17T03:17:21.446Z,17.50
2018-10-17T03:19:56.958Z,17.50
2018-10-17T03:22:29.973Z,17.50
2018-10-17T03:25:03.510Z,17.50
2018-10-17T03:27:38.666Z,17.50
2018-10-17T03:33:43.801Z,17.40
2018-10-17T03:36:17.247Z,17.40
2018-10-17T03:38:53.246Z,17.40
2018-10-17T03:41:26.298Z,17.30
2018-10-17T03:44:35.150Z,17.30
2018-10-17T03:47:08.863Z,17.30
2018-10-17T03:53:04.479Z,17.20
2018-10-17T03:55:37.847Z,17.20
2018-10-17T03:58:11.930Z,17.20
2018-10-17T04:00:44.698Z,17.10
2018-10-17T04:03:17.460Z,17.10
2018-10-17T04:05:51.863Z,17.10
2018-10-17T04:08:25.405Z,17.10
2018-10-17T04:10:58.510Z,17.00
2018-10-17T04:13:31.550Z,17.00
2018-10-17T04:19:36.547Z,16.90
2018-10-17T04:22:09.823Z,16.90
2018-10-17T04:24:51.808Z,16.90
2018-10-17T04:30:56.425Z,16.90
2018-10-17T04:33:29.578Z,17.00
2018-10-17T04:36:02.401Z,17.00
2018-10-17T04:38:35.890Z,17.00
2018-10-17T04:41:09.241Z,17.10
2018-10-17T04:43:42.740Z,17.10
2018-10-17T04:46:15.522Z,17.10
2018-10-17T04:48:48.836Z,17.10
2018-10-17T04:54:43.710Z,17.10
2018-10-17T04:57:16.331Z,17.10
2018-10-17T04:59:48.750Z,17.10
2018-10-17T05:02:21.915Z,17.10
2018-10-17T05:04:54.716Z,17.00
2018-10-17T05:07:27.101Z,16.90
2018-10-17T05:13:20.897Z,17.10
2018-10-17T05:16:38.609Z,17.10
2018-10-17T05:19:11.746Z,17.00
2018-10-17T05:21:44.967Z,17.00
2018-10-17T05:24:17.942Z,17.00
2018-10-17T05:26:51.227Z,17.00
2018-10-17T05:29:24.156Z,16.90
2018-10-17T05:31:57.218Z,16.90
2018-10-17T05:34:30.239Z,16.90
2018-10-17T05:37:03.322Z,16.90
2018-10-17T05:39:36.480Z,16.90
2018-10-17T05:42:09.705Z,16.90
2018-10-17T05:44:42.657Z,16.90
2018-10-17T05:47:16.033Z,16.80
2018-10-17T05:49:49.097Z,16.80
2018-10-17T05:55:43.323Z,16.80
2018-10-17T05:58:16.104Z,16.80
2018-10-17T06:00:48.963Z,16.80
2018-10-17T06:03:21.929Z,16.80
2018-10-17T06:06:19.425Z,16.70
2018-10-17T06:08:51.832Z,16.70
2018-10-17T06:11:24.711Z,16.80
2018-10-17T06:13:57.395Z,16.80
2018-10-17T06:16:30.098Z,16.70
2018-10-17T06:19:02.512Z,16.80
2018-10-17T06:21:35.136Z,16.80
2018-10-17T06:27:28.995Z,16.70
2018-10-17T06:30:01.844Z,16.80
2018-10-17T06:33:01.141Z,16.80
2018-10-17T06:35:33.395Z,16.90
2018-10-17T06:38:05.881Z,16.90
2018-10-17T06:40:39.224Z,17.00
2018-10-17T06:43:12.267Z,16.90
2018-10-17T06:45:45.212Z,16.90
2018-10-17T06:48:18.218Z,16.90
2018-10-17T06:50:50.956Z,16.90
2018-10-17T06:53:23.288Z,16.90
2018-10-17T06:55:56.222Z,17.00
2018-10-17T07:01:50.354Z,17.00
2018-10-17T07:04:23.890Z,17.00
2018-10-17T07:06:57.289Z,16.90
2018-10-17T07:09:31.003Z,16.90
2018-10-17T07:12:04.340Z,16.80
2018-10-17T07:14:37.776Z,16.90
2018-10-17T07:17:11.260Z,16.90
2018-10-17T07:19:44.631Z,16.90
2018-10-17T07:22:18.217Z,16.90
2018-10-17T07:24:52.076Z,16.90
2018-10-17T07:27:25.373Z,16.90
2018-10-17T07:29:58.720Z,16.90
2018-10-17T07:32:32.051Z,17.00
2018-10-17T07:35:05.764Z,16.90
2018-10-17T07:37:39.265Z,16.90
2018-10-17T07:43:32.948Z,16.90
2018-10-17T07:46:12.470Z,16.70
2018-10-17T07:48:45.492Z,16.70
2018-10-17T07:51:18.493Z,16.70
2018-10-17T07:53:51.727Z,16.60
2018-10-17T07:56:24.704Z,16.70
2018-10-17T07:58:58.132Z,16.60
2018-10-17T08:01:31.265Z,16.60
2018-10-17T08:04:04.131Z,16.60
2018-10-17T08:06:37.044Z,16.70
2018-10-17T08:09:13.344Z,16.80
2018-10-17T08:11:46.492Z,16.90
2018-10-17T08:14:19.417Z,16.90
2018-10-17T08:16:52.314Z,16.80
2018-10-17T08:19:25.395Z,16.80
2018-10-17T08:21:58.558Z,16.80
2018-10-17T08:24:31.361Z,16.80
2018-10-17T08:27:04.510Z,16.80
2018-10-17T08:29:37.338Z,16.70
2018-10-17T08:32:11.322Z,16.70
2018-10-17T08:34:44.619Z,16.70
2018-10-17T08:37:17.933Z,16.70
2018-10-17T08:39:50.544Z,16.70
2018-10-17T08:42:23.806Z,16.60
2018-10-17T08:44:56.950Z,16.70
2018-10-17T08:47:30.033Z,16.70
2018-10-17T08:50:03.010Z,16.70
2018-10-17T08:52:36.194Z,16.80
2018-10-17T08:55:09.566Z,16.70
2018-10-17T08:57:42.580Z,16.70
2018-10-17T09:00:15.833Z,16.70
2018-10-17T09:02:49.082Z,16.70
2018-10-17T09:05:22.349Z,16.70
2018-10-17T09:07:55.416Z,16.60
2018-10-17T09:10:29.165Z,16.60
2018-10-17T09:13:02.557Z,16.50
2018-10-17T09:15:38.381Z,16.50
2018-10-17T09:18:09.262Z,16.40
2018-10-17T09:20:42.603Z,16.40
2018-10-17T09:23:15.503Z,16.40
2018-10-17T09:25:48.800Z,16.40
2018-10-17T09:31:42.246Z,16.40
2018-10-17T09:34:15.405Z,16.50
2018-10-17T09:36:48.490Z,16.60
2018-10-17T09:39:21.459Z,16.70
2018-10-17T09:41:54.325Z,16.70
2018-10-17T09:44:26.822Z,16.70
2018-10-17T09:47:00.090Z,16.80
2018-10-17T09:49:33.340Z,16.90
2018-10-17T09:52:06.753Z,16.80
2018-10-17T09:54:39.748Z,16.90
2018-10-17T09:57:12.780Z,16.90
2018-10-17T09:59:45.519Z,16.90
2018-10-17T10:02:18.159Z,16.90
2018-10-17T10:04:51.248Z,16.80
2018-10-17T10:07:24.267Z,16.80
2018-10-17T10:13:18.547Z,16.80
2018-10-17T10:15:51.773Z,16.80
2018-10-17T10:18:24.929Z,16.80
2018-10-17T10:20:58.488Z,16.90
2018-10-17T10:23:31.877Z,16.90
2018-10-17T10:26:05.135Z,16.90
2018-10-17T10:28:38.570Z,16.90
2018-10-17T10:34:33.463Z,16.90
2018-10-17T10:37:06.939Z,16.80
2018-10-17T10:39:40.517Z,16.80
2018-10-17T10:42:14.037Z,16.80
2018-10-17T10:44:47.873Z,16.80
2018-10-17T10:47:21.166Z,16.80
2018-10-17T10:49:54.981Z,16.80
2018-10-17T10:52:28.311Z,16.90
2018-10-17T10:55:01.714Z,16.80
2018-10-17T10:57:35.072Z,16.80
2018-10-17T11:00:08.761Z,16.80
2018-10-17T11:02:42.219Z,16.80
2018-10-17T11:05:15.557Z,16.80
2018-10-17T11:07:49.388Z,16.80
2018-10-17T11:10:22.736Z,16.80
2018-10-17T11:12:56.848Z,16.80
2018-10-17T11:15:30.335Z,16.90
2018-10-17T11:18:03.640Z,16.90
2018-10-17T11:20:37.002Z,16.90
2018-10-17T11:23:10.496Z,16.90
2018-10-17T11:25:44.361Z,16.80
2018-10-17T11:28:17.813Z,16.80
2018-10-17T11:30:51.194Z,16.80
2018-10-17T11:33:24.481Z,16.80
2018-10-17T11:35:57.727Z,16.80
2018-10-17T11:38:30.991Z,16.80
2018-10-17T11:41:05.792Z,16.90
2018-10-17T11:43:39.132Z,16.90
2018-10-17T11:46:12.323Z,16.80
2018-10-17T11:48:45.615Z,16.80
2018-10-17T11:51:18.833Z,16.80
2018-10-17T11:53:52.165Z,16.80
2018-10-17T11:56:25.481Z,16.80
2018-10-17T11:58:58.850Z,16.80
2018-10-17T12:01:32.000Z,16.80
2018-10-17T12:04:05.740Z,16.80
2018-10-17T12:06:39.071Z,16.90
2018-10-17T12:12:33.169Z,16.80
2018-10-17T12:15:06.573Z,16.80
2018-10-17T12:17:40.167Z,16.80
2018-10-17T12:20:15.859Z,16.90
2018-10-17T12:22:49.341Z,16.90
2018-10-17T12:25:22.602Z,16.80
2018-10-17T12:27:57.440Z,16.80
2018-10-17T12:30:30.773Z,16.70
2018-10-17T12:33:04.087Z,16.80
2018-10-17T12:35:39.051Z,16.80
2018-10-17T12:38:15.157Z,16.70
2018-10-17T12:43:34.611Z,16.80
2018-10-17T12:46:10.235Z,16.80
2018-10-17T12:48:45.415Z,16.80
2018-10-17T12:51:20.860Z,16.80
2018-10-17T12:53:54.708Z,16.80
2018-10-17T12:56:30.255Z,16.90
2018-10-17T12:59:04.555Z,17.00
2018-10-17T13:01:39.299Z,17.10
2018-10-17T13:04:12.798Z,17.20
2018-10-17T13:06:46.019Z,17.20
2018-10-17T13:09:19.235Z,17.20
2018-10-17T13:11:52.860Z,17.10
2018-10-17T13:14:25.690Z,17.10
2018-10-17T13:16:58.889Z,17.10
2018-10-17T13:19:32.610Z,17.20
2018-10-17T13:22:05.853Z,17.30
2018-10-17T13:24:38.825Z,17.40
2018-10-17T13:27:13.795Z,17.50
2018-10-17T13:29:50.815Z,17.50
2018-10-17T13:32:24.830Z,17.50
2018-10-17T13:34:59.426Z,17.40
2018-10-17T13:37:32.425Z,17.60
2018-10-17T13:40:07.786Z,17.50
2018-10-17T13:42:47.308Z,17.60
2018-10-17T13:45:20.976Z,17.70
2018-10-17T13:47:55.052Z,17.60
2018-10-17T13:50:29.498Z,17.70
2018-10-17T13:53:02.840Z,17.60
2018-10-17T13:55:39.954Z,17.70
2018-10-17T13:58:13.578Z,17.60
2018-10-17T14:00:48.356Z,17.60
2018-10-17T14:03:21.993Z,17.50
2018-10-17T14:05:55.657Z,17.50
2018-10-17T14:08:29.094Z,17.50
2018-10-17T14:11:03.156Z,17.40
2018-10-17T14:13:37.012Z,17.30
2018-10-17T14:16:11.484Z,17.30
2018-10-17T14:18:45.226Z,17.30
2018-10-17T14:21:21.877Z,17.30
2018-10-17T14:24:06.349Z,17.30
2018-10-17T14:26:42.392Z,17.40
2018-10-17T14:29:16.037Z,17.30
2018-10-17T14:31:49.457Z,17.30
2018-10-17T14:34:23.250Z,17.30
2018-10-17T14:36:59.256Z,17.30
2018-10-17T14:39:38.878Z,17.30
2018-10-17T14:42:14.747Z,17.40
2018-10-17T14:48:13.141Z,17.30
2018-10-17T14:50:56.466Z,17.40
2018-10-17T14:53:29.952Z,17.40
2018-10-17T14:56:03.984Z,17.50
2018-10-17T14:58:37.460Z,17.50
2018-10-17T15:01:12.883Z,17.60
2018-10-17T15:03:47.997Z,17.80
2018-10-17T15:06:26.156Z,17.80
2018-10-17T15:09:03.727Z,17.90
2018-10-17T15:11:37.823Z,17.80
2018-10-17T15:14:11.497Z,17.90
2018-10-17T15:16:46.626Z,18.10
2018-10-17T15:19:20.370Z,18.10
2018-10-17T15:21:57.418Z,18.20
2018-10-17T15:24:32.481Z,18.00
2018-10-17T15:27:06.708Z,17.90
2018-10-17T15:29:39.757Z,18.00
2018-10-17T15:32:14.331Z,17.80
2018-10-17T15:34:48.664Z,18.10
2018-10-17T15:37:21.870Z,18.10
2018-10-17T15:39:56.220Z,18.30
2018-10-17T15:42:29.934Z,18.30
2018-10-17T15:45:03.235Z,18.30
2018-10-17T15:47:39.614Z,18.50
2018-10-17T15:50:23.477Z,18.40
2018-10-17T15:52:56.702Z,18.40
2018-10-17T15:55:31.281Z,18.50
2018-10-17T15:58:08.137Z,18.50
2018-10-17T16:00:42.205Z,18.70
2018-10-17T16:03:15.617Z,18.70
2018-10-17T16:05:47.777Z,18.90
2018-10-17T16:08:21.018Z,18.90
2018-10-17T16:10:53.746Z,19.10
2018-10-17T16:13:27.551Z,19.40
2018-10-17T16:16:00.187Z,19.30
2018-10-17T16:18:41.324Z,19.50
2018-10-17T16:21:14.467Z,19.60
2018-10-17T16:23:46.845Z,19.70
2018-10-17T16:26:19.326Z,19.90
2018-10-17T16:28:56.513Z,19.80
2018-10-17T16:31:30.798Z,19.90
2018-10-17T16:34:04.867Z,19.40
2018-10-17T16:40:13.271Z,19.30
2018-10-17T16:42:48.871Z,19.30
2018-10-17T16:45:21.959Z,19.10
2018-10-17T16:47:55.364Z,19.10
2018-10-17T16:50:28.392Z,19.00
2018-10-17T16:53:01.253Z,19.00
2018-10-17T16:55:34.051Z,18.90
2018-10-17T16:58:07.662Z,19.10
2018-10-17T17:00:41.389Z,19.00
2018-10-17T17:03:15.620Z,19.10
2018-10-17T17:05:49.916Z,19.20
2018-10-17T17:08:25.059Z,19.10
2018-10-17T17:10:58.054Z,19.20
2018-10-17T17:13:32.132Z,19.40
2018-10-17T17:16:05.532Z,19.70
2018-10-17T17:18:39.682Z,19.90
2018-10-17T17:21:13.081Z,19.90
2018-10-17T17:23:51.589Z,19.60
2018-10-17T17:26:24.838Z,19.50
2018-10-17T17:28:57.722Z,19.50
2018-10-17T17:31:32.606Z,19.60
2018-10-17T17:34:05.534Z,19.30
2018-10-17T17:36:41.324Z,19.20
2018-10-17T17:39:14.460Z,19.30
2018-10-17T17:41:47.307Z,19.00
2018-10-17T17:44:20.376Z,19.10
2018-10-17T17:46:53.452Z,19.10
2018-10-17T17:49:26.176Z,19.30
2018-10-17T17:51:59.231Z,19.40
2018-10-17T17:54:34.573Z,19.20
2018-10-17T17:57:07.376Z,19.30
2018-10-17T17:59:40.837Z,19.60
2018-10-17T18:02:14.323Z,19.70
2018-10-17T18:04:47.965Z,19.90
2018-10-17T18:07:21.908Z,20.30
2018-10-17T18:09:58.221Z,19.80
2018-10-17T18:12:41.088Z,19.80
2018-10-17T18:15:14.860Z,19.60
2018-10-17T18:17:48.010Z,19.90
2018-10-17T18:20:21.465Z,20.10
2018-10-17T18:22:54.931Z,20.20
2018-10-17T18:25:28.263Z,20.10
2018-10-17T18:28:01.996Z,20.50
2018-10-17T18:30:35.226Z,20.70
2018-10-17T18:33:08.456Z,20.90
2018-10-17T18:35:41.920Z,20.90
2018-10-17T18:38:16.192Z,21.00
2018-10-17T18:44:23.415Z,21.10
2018-10-17T18:46:57.801Z,21.20
2018-10-17T18:49:31.532Z,21.20
2018-10-17T18:52:05.363Z,21.60
2018-10-17T18:54:38.822Z,21.70
2018-10-17T18:57:12.642Z,21.90
2018-10-17T18:59:46.062Z,21.90
2018-10-17T19:05:40.628Z,22.40
2018-10-17T19:08:13.331Z,21.80
2018-10-17T19:10:46.270Z,21.10
2018-10-17T19:13:18.854Z,21.00
2018-10-17T19:15:51.893Z,21.20
2018-10-17T19:18:25.636Z,21.10
2018-10-17T19:21:01.323Z,21.30
2018-10-17T19:23:33.978Z,21.30
2018-10-17T19:29:29.626Z,21.20
2018-10-17T19:32:02.927Z,20.70
2018-10-17T19:34:36.139Z,20.60
2018-10-17T19:37:09.088Z,20.50
2018-10-17T19:39:42.424Z,20.50
2018-10-17T19:42:17.718Z,20.80
2018-10-17T19:44:51.197Z,20.60
2018-10-17T19:47:24.776Z,20.40
2018-10-17T19:49:58.136Z,20.60
2018-10-17T19:52:31.520Z,20.80
2018-10-17T19:55:04.454Z,20.90
2018-10-17T19:57:38.098Z,20.70
2018-10-17T20:00:13.686Z,21.00
2018-10-17T20:02:48.051Z,21.40
2018-10-17T20:05:22.192Z,21.70
2018-10-17T20:07:55.104Z,21.90
2018-10-17T20:10:28.087Z,21.50
2018-10-17T20:13:00.927Z,21.90
2018-10-17T20:15:33.773Z,22.20
2018-10-17T20:18:06.644Z,22.20
2018-10-17T20:20:39.510Z,22.20
2018-10-17T20:23:12.335Z,22.50
2018-10-17T20:25:45.141Z,22.20
2018-10-17T20:28:18.209Z,22.40
2018-10-17T20:30:51.130Z,23.20
2018-10-17T20:33:23.959Z,24.10
2018-10-17T20:35:56.778Z,24.00
2018-10-17T20:38:30.956Z,23.60
2018-10-17T20:41:03.784Z,22.10
2018-10-17T20:43:36.676Z,21.60
2018-10-17T20:46:09.674Z,21.40
2018-10-17T20:48:54.258Z,21.50
2018-10-17T20:51:27.157Z,21.70
2018-10-17T20:54:00.057Z,21.90
2018-10-17T20:56:32.975Z,21.70
2018-10-17T20:59:07.511Z,21.40
2018-10-17T21:01:41.645Z,20.80
2018-10-17T21:04:15.470Z,20.60
2018-10-17T21:06:49.686Z,20.50
2018-10-17T21:09:22.661Z,20.50
2018-10-17T21:11:56.391Z,20.50
2018-10-17T21:14:34.692Z,20.60
2018-10-17T21:17:07.656Z,20.70
2018-10-17T21:19:41.195Z,20.80
2018-10-17T21:22:15.765Z,21.20
2018-10-17T21:24:48.607Z,21.60
2018-10-17T21:27:21.617Z,21.50
2018-10-17T21:29:54.433Z,21.30
2018-10-17T21:32:27.843Z,21.40
2018-10-17T21:35:00.818Z,21.20
2018-10-17T21:37:33.808Z,21.10
2018-10-17T21:40:07.272Z,21.40
2018-10-17T21:42:40.304Z,21.40
2018-10-17T21:45:14.642Z,21.10
2018-10-17T21:47:47.497Z,21.30
2018-10-17T21:51:05.806Z,21.30
2018-10-17T21:53:38.950Z,21.10
2018-10-17T21:56:12.520Z,21.10
2018-10-17T21:58:45.533Z,20.90
2018-10-17T22:01:22.394Z,20.80
2018-10-17T22:03:56.197Z,20.80
2018-10-17T22:06:29.609Z,20.90
2018-10-17T22:09:02.904Z,21.00
2018-10-17T22:11:36.880Z,20.60
2018-10-17T22:14:10.792Z,20.60
2018-10-17T22:16:48.652Z,20.50
2018-10-17T22:19:22.288Z,20.50
2018-10-17T22:21:55.908Z,20.50
2018-10-17T22:24:29.330Z,20.40
2018-10-17T22:27:02.592Z,20.20
2018-10-17T22:29:36.203Z,20.10
2018-10-17T22:32:10.036Z,20.10
2018-10-17T22:34:44.429Z,20.00
2018-10-17T22:37:17.835Z,19.90
2018-10-17T22:39:51.453Z,19.90
2018-10-17T22:42:24.859Z,19.90
2018-10-17T22:44:58.173Z,19.90
2018-10-17T22:47:31.637Z,19.90
2018-10-17T22:50:04.898Z,20.00
2018-10-17T22:52:38.471Z,20.00
2018-10-17T22:55:11.893Z,20.00
2018-10-17T22:57:45.661Z,19.90
2018-10-17T23:00:19.115Z,19.80
2018-10-17T23:02:52.944Z,19.60
2018-10-17T23:05:26.348Z,19.50
2018-10-17T23:07:59.737Z,19.50
2018-10-17T23:10:33.296Z,19.50
2018-10-17T23:13:07.493Z,19.50
2018-10-17T23:16:28.095Z,19.40
2018-10-17T23:19:01.386Z,19.40
2018-10-17T23:21:37.779Z,19.30
2018-10-17T23:24:16.760Z,19.20
2018-10-17T23:26:50.267Z,19.00
2018-10-17T23:29:23.472Z,18.90
2018-10-17T23:35:17.686Z,18.70
2018-10-17T23:37:50.705Z,18.60
2018-10-17T23:40:23.720Z,18.60
2018-10-17T23:42:56.789Z,18.50
2018-10-17T23:45:31.134Z,18.40
2018-10-17T23:48:06.011Z,18.40
2018-10-17T23:50:38.761Z,18.40
2018-10-17T23:53:11.908Z,18.50
2018-10-17T23:55:44.985Z,18.50
2018-10-17T23:58:17.936Z,18.40
